Time;durP1;ratioP1;P1;durP2;ratioP2;P2;SDS_P1;SDS_P2;PMS_P1;PMS_P2;Temp;Humidity;BMP_temperature;BMP_pressure;BME280_temperature;BME280_humidity;BME280_pressure;Samples;Min_cycle;Max_cycle;Signal;HPM_P1;HPM_P2
2022/10/23 00:00:32;;;;;;;7.35;4.03;;;14.00;88.20;;;;;;5050735;28;20527;-35
2022/10/23 00:02:58;;;;;;;7.22;4.10;;;14.00;88.10;;;;;;5050932;28;20414;-34
2022/10/23 00:05:25;;;;;;;7.47;4.30;;;14.00;88.20;;;;;;5049685;28;20029;-37
2022/10/23 00:07:52;;;;;;;8.38;4.22;;;13.90;88.10;;;;;;5049290;28;20124;-34
2022/10/23 00:10:19;;;;;;;7.07;4.50;;;13.90;88.20;;;;;;5050592;28;20079;-34
2022/10/23 00:12:45;;;;;;;6.60;4.05;;;13.90;88.30;;;;;;5050490;28;20027;-35
2022/10/23 00:15:12;;;;;;;8.00;4.28;;;13.90;88.30;;;;;;5050344;28;20021;-34
2022/10/23 00:17:38;;;;;;;5.82;3.85;;;13.80;88.30;;;;;;5050483;28;20429;-35
2022/10/23 00:20:06;;;;;;;5.97;4.10;;;13.80;88.50;;;;;;5050470;28;20051;-35
2022/10/23 00:22:31;;;;;;;6.85;4.13;;;13.80;88.50;;;;;;5052403;28;20036;-34
2022/10/23 00:24:57;;;;;;;7.47;4.40;;;13.70;88.60;;;;;;5054282;28;20499;-33
2022/10/23 00:27:23;;;;;;;8.40;4.43;;;13.70;88.60;;;;;;5054175;28;20128;-35
2022/10/23 00:29:48;;;;;;;6.68;4.32;;;13.70;88.70;;;;;;5052797;28;20074;-34
2022/10/23 00:32:14;;;;;;;8.70;4.30;;;13.60;88.70;;;;;;5054458;28;20114;-35
2022/10/23 00:34:40;;;;;;;6.72;4.38;;;13.70;88.80;;;;;;5054127;28;20029;-34
2022/10/23 00:37:05;;;;;;;7.88;4.47;;;13.60;88.70;;;;;;5054206;28;20393;-34
2022/10/23 00:39:31;;;;;;;8.52;4.85;;;13.60;88.80;;;;;;5052695;28;20112;-34
2022/10/23 00:41:56;;;;;;;7.00;4.38;;;13.60;88.80;;;;;;5054016;28;20052;-34
2022/10/23 00:44:22;;;;;;;8.70;4.60;;;13.60;88.80;;;;;;5053873;28;20035;-35
2022/10/23 00:46:48;;;;;;;7.38;4.65;;;13.60;88.80;;;;;;5053955;28;20772;-34
2022/10/23 00:49:14;;;;;;;8.73;4.70;;;13.60;88.80;;;;;;5053570;28;20366;-34
2022/10/23 00:51:50;;;;;;;7.38;4.47;;;13.60;88.80;;;;;;5053733;28;20096;-34
2022/10/23 00:54:20;;;;;;;5.88;4.38;;;13.60;88.80;;;;;;5052120;28;20060;-35
2022/10/23 00:56:46;;;;;;;8.15;4.43;;;13.60;88.80;;;;;;5053748;28;20447;-34
2022/10/23 00:59:13;;;;;;;5.85;4.30;;;13.60;88.80;;;;;;5053512;28;20101;-35
2022/10/23 01:01:39;;;;;;;8.80;4.60;;;13.60;88.90;;;;;;5053402;28;20480;-35
2022/10/23 01:04:06;;;;;;;7.80;4.70;;;13.60;88.90;;;;;;5053602;28;20025;-35
2022/10/23 01:06:45;;;;;;;7.03;4.80;;;13.60;88.90;;;;;;5053484;28;20461;-34
2022/10/23 01:09:22;;;;;;;6.18;4.30;;;13.60;88.90;;;;;;5053674;28;20407;-34
2022/10/23 01:11:56;;;;;;;6.78;4.72;;;13.50;88.80;;;;;;5053966;28;20029;-33
2022/10/23 01:14:51;;;;;;;6.10;4.90;;;13.50;88.90;;;;;;5053532;28;20029;-34
2022/10/23 01:17:21;;;;;;;7.78;4.60;;;13.50;88.90;;;;;;5053376;28;20021;-34
2022/10/23 01:20:00;;;;;;;8.05;5.20;;;13.50;88.90;;;;;;5053487;28;20112;-34
2022/10/23 01:22:38;;;;;;;6.22;4.50;;;13.50;88.90;;;;;;5053312;28;20087;-34
2022/10/23 01:25:28;;;;;;;7.38;4.88;;;13.50;89.00;;;;;;5053360;28;20024;-35
2022/10/23 01:28:01;;;;;;;7.80;4.90;;;13.50;88.90;;;;;;5053291;28;20397;-35
2022/10/23 01:30:28;;;;;;;9.80;5.05;;;13.50;89.00;;;;;;5053301;28;20027;-35
2022/10/23 01:33:03;;;;;;;6.18;4.78;;;13.50;88.90;;;;;;5052933;28;20025;-35
2022/10/23 01:35:38;;;;;;;7.43;5.03;;;13.50;89.00;;;;;;5052865;28;20029;-34
2022/10/23 01:38:22;;;;;;;6.13;4.65;;;13.50;89.00;;;;;;5053201;28;20052;-34
2022/10/23 01:41:01;;;;;;;5.90;4.30;;;13.50;89.10;;;;;;5053140;28;20060;-33
2022/10/23 01:43:44;;;;;;;8.43;5.00;;;13.50;89.10;;;;;;5053137;28;20396;-34
2022/10/23 01:46:14;;;;;;;9.20;4.65;;;13.40;89.00;;;;;;5052789;28;20127;-32
2022/10/23 01:48:45;;;;;;;8.10;4.88;;;13.40;89.10;;;;;;5052773;28;20034;-33
2022/10/23 01:51:13;;;;;;;8.77;4.63;;;13.40;89.10;;;;;;5052407;28;20036;-33
2022/10/23 01:53:42;;;;;;;6.00;4.63;;;13.40;89.10;;;;;;5052589;28;20025;-34
2022/10/23 01:56:11;;;;;;;6.30;4.57;;;13.40;89.20;;;;;;5052791;28;20033;-33
2022/10/23 01:58:38;;;;;;;8.48;4.63;;;13.40;89.20;;;;;;5052850;28;20035;-35
2022/10/23 02:01:05;;;;;;;7.28;4.97;;;13.40;89.80;;;;;;5052433;28;20110;-35
2022/10/23 02:03:33;;;;;;;7.47;4.68;;;13.40;89.20;;;;;;5052713;28;20420;-34
2022/10/23 02:05:58;;;;;;;6.93;4.80;;;13.40;89.20;;;;;;5052423;28;20017;-35
2022/10/23 02:08:24;;;;;;;11.02;5.70;;;13.40;89.20;;;;;;5052404;28;20495;-34
2022/10/23 02:11:12;;;;;;;7.60;4.43;;;13.40;89.20;;;;;;5052309;28;20040;-34
2022/10/23 02:14:12;;;;;;;5.80;4.10;;;13.40;89.20;;;;;;5052111;28;20043;-33
2022/10/23 02:16:48;;;;;;;5.35;4.35;;;13.40;89.20;;;;;;5050768;28;20044;-34
2022/10/23 02:19:26;;;;;;;7.38;4.70;;;13.40;89.20;;;;;;5052083;28;20036;-35
2022/10/23 02:21:53;;;;;;;7.07;4.57;;;13.40;89.20;;;;;;5052060;28;20025;-34
2022/10/23 02:24:27;;;;;;;6.53;4.45;;;13.40;89.20;;;;;;5052080;28;20023;-34
2022/10/23 02:26:58;;;;;;;7.38;5.10;;;13.40;89.20;;;;;;5052273;28;20057;-34
2022/10/23 02:29:26;;;;;;;9.40;4.72;;;13.40;89.20;;;;;;5050666;28;20025;-34
2022/10/23 02:31:52;;;;;;;6.25;4.65;;;13.40;89.20;;;;;;5051761;28;20025;-34
2022/10/23 02:34:18;;;;;;;8.57;4.65;;;13.40;89.20;;;;;;5052064;28;20031;-33
2022/10/23 02:36:44;;;;;;;9.98;5.55;;;13.40;89.20;;;;;;5051853;28;20029;-35
2022/10/23 02:39:09;;;;;;;6.80;4.65;;;13.40;89.20;;;;;;5051818;28;20127;-40
2022/10/23 02:41:54;;;;;;;7.72;5.22;;;13.30;89.20;;;;;;5051779;28;20032;-35
2022/10/23 02:44:32;;;;;;;7.30;4.97;;;13.30;89.30;;;;;;5051878;28;20480;-37
2022/10/23 02:47:12;;;;;;;6.15;4.72;;;13.30;89.40;;;;;;5051685;28;20032;-36
2022/10/23 02:49:43;;;;;;;6.32;4.70;;;13.30;89.40;;;;;;5051694;28;20047;-34
2022/10/23 02:52:43;;;;;;;6.78;4.63;;;13.30;89.40;;;;;;5051440;28;20021;-32
2022/10/23 02:55:20;;;;;;;5.60;4.65;;;13.20;89.50;;;;;;5050941;28;20079;-34
2022/10/23 02:58:15;;;;;;;7.70;4.63;;;13.20;89.40;;;;;;5051637;28;20025;-34
2022/10/23 03:00:45;;;;;;;6.18;4.53;;;13.20;89.50;;;;;;5051354;28;20496;-34
2022/10/23 03:03:16;;;;;;;6.93;4.78;;;13.20;89.50;;;;;;5051397;28;20021;-35
2022/10/23 03:05:43;;;;;;;7.68;4.55;;;13.20;89.50;;;;;;5051282;28;20025;-34
2022/10/23 03:08:11;;;;;;;8.55;4.68;;;13.20;89.50;;;;;;5051399;28;20013;-33
2022/10/23 03:10:37;;;;;;;9.15;4.68;;;13.20;89.50;;;;;;5051197;28;20033;-34
2022/10/23 03:13:03;;;;;;;6.80;4.80;;;13.20;89.60;;;;;;5051213;28;20104;-34
2022/10/23 03:15:29;;;;;;;7.22;4.28;;;13.20;89.60;;;;;;5051004;28;20021;-34
2022/10/23 03:17:54;;;;;;;6.57;4.25;;;13.10;89.70;;;;;;5050957;28;20021;-45
2022/10/23 03:20:20;;;;;;;8.23;4.38;;;13.10;89.60;;;;;;5050822;28;20496;-34
2022/10/23 03:22:45;;;;;;;9.02;4.75;;;13.20;89.70;;;;;;5050890;28;20028;-36
2022/10/23 03:25:11;;;;;;;7.13;4.80;;;13.20;89.80;;;;;;5050755;28;20490;-33
2022/10/23 03:27:36;;;;;;;7.32;4.72;;;13.10;89.70;;;;;;5050643;28;20033;-35
2022/10/23 03:30:03;;;;;;;9.60;5.05;;;13.20;89.80;;;;;;5050584;28;20028;-33
2022/10/23 03:32:29;;;;;;;6.75;4.53;;;13.20;89.80;;;;;;5050664;28;20090;-34
2022/10/23 03:34:55;;;;;;;6.88;4.40;;;13.20;89.80;;;;;;5050719;28;20108;-35
2022/10/23 03:37:20;;;;;;;6.88;4.65;;;13.20;89.80;;;;;;5050623;28;20074;-32
2022/10/23 03:39:46;;;;;;;5.97;4.10;;;13.20;89.80;;;;;;5050792;28;20025;-35
2022/10/23 03:42:12;;;;;;;8.18;4.88;;;13.20;89.80;;;;;;5050651;28;20028;-34
2022/10/23 03:44:37;;;;;;;10.10;4.70;;;13.20;89.80;;;;;;5050529;28;20024;-34
2022/10/23 03:47:03;;;;;;;6.28;4.38;;;13.20;90.10;;;;;;5050519;28;20033;-34
2022/10/23 03:49:28;;;;;;;9.35;4.15;;;13.20;89.80;;;;;;5050606;28;20024;-34
2022/10/23 03:51:54;;;;;;;7.35;4.78;;;13.20;89.90;;;;;;5050669;28;20021;-36
2022/10/23 03:54:25;;;;;;;5.53;4.32;;;13.20;89.90;;;;;;5050567;28;20090;-34
2022/10/23 03:56:51;;;;;;;5.88;4.32;;;13.20;90.00;;;;;;5051328;28;20029;-34
2022/10/23 03:59:17;;;;;;;7.32;4.40;;;13.20;89.90;;;;;;5054598;28;20036;-35
2022/10/23 04:01:42;;;;;;;8.30;4.38;;;13.20;89.90;;;;;;5054608;28;20473;-37
2022/10/23 04:04:08;;;;;;;9.45;4.20;;;13.20;89.90;;;;;;5054640;28;20032;-33
2022/10/23 04:06:34;;;;;;;6.10;3.72;;;13.20;90.00;;;;;;5054421;28;20441;-35
2022/10/23 04:08:59;;;;;;;5.85;3.95;;;13.20;90.00;;;;;;5054437;28;20101;-35
2022/10/23 04:11:25;;;;;;;7.75;4.20;;;13.20;90.00;;;;;;5054773;28;20024;-35
2022/10/23 04:13:51;;;;;;;7.65;4.05;;;13.20;90.00;;;;;;5054270;28;20029;-34
2022/10/23 04:16:17;;;;;;;4.78;3.95;;;13.20;90.00;;;;;;5054311;28;20326;-35
2022/10/23 04:18:42;;;;;;;7.38;4.13;;;13.20;90.00;;;;;;5054332;28;20029;-34
2022/10/23 04:21:09;;;;;;;5.10;3.67;;;13.30;90.00;;;;;;5054429;28;20028;-35
2022/10/23 04:23:35;;;;;;;4.50;3.25;;;13.20;90.00;;;;;;5054276;28;20024;-34
2022/10/23 04:26:01;;;;;;;6.13;3.60;;;13.30;90.00;;;;;;5054195;28;20380;-34
2022/10/23 04:28:26;;;;;;;7.47;3.63;;;13.20;90.00;;;;;;5053935;28;20493;-35
2022/10/23 04:30:52;;;;;;;7.10;3.88;;;13.30;90.00;;;;;;5053893;28;20429;-34
2022/10/23 04:33:18;;;;;;;7.55;4.05;;;13.30;90.00;;;;;;5053912;28;20412;-34
2022/10/23 04:35:43;;;;;;;8.13;3.60;;;13.30;90.00;;;;;;5053757;28;20093;-35
2022/10/23 04:38:09;;;;;;;6.20;4.10;;;13.30;90.00;;;;;;5053980;28;20445;-34
2022/10/23 04:40:34;;;;;;;8.48;3.90;;;13.30;90.00;;;;;;5053884;28;20481;-35
2022/10/23 04:43:00;;;;;;;6.05;3.83;;;13.30;90.00;;;;;;5053933;28;20381;-34
2022/10/23 04:45:26;;;;;;;7.10;4.00;;;13.40;90.00;;;;;;5053822;28;20486;-35
2022/10/23 04:47:55;;;;;;;5.60;4.00;;;13.40;90.00;;;;;;5053624;28;20040;-34
2022/10/23 04:50:22;;;;;;;5.05;3.40;;;13.40;90.00;;;;;;5053700;28;20128;-34
2022/10/23 04:52:47;;;;;;;5.47;3.58;;;13.40;90.00;;;;;;5053623;28;20162;-34
2022/10/23 04:55:13;;;;;;;7.28;3.90;;;13.40;90.00;;;;;;5053622;28;20486;-34
2022/10/23 04:57:39;;;;;;;6.55;3.78;;;13.40;90.00;;;;;;5053722;28;20398;-34
2022/10/23 05:00:07;;;;;;;4.30;3.42;;;13.40;90.00;;;;;;5053447;28;20152;-34
2022/10/23 05:02:33;;;;;;;5.50;3.40;;;13.40;90.00;;;;;;5053416;28;20060;-33
2022/10/23 05:04:59;;;;;;;10.13;4.03;;;13.40;90.00;;;;;;5053500;28;20071;-34
2022/10/23 05:07:24;;;;;;;6.43;3.80;;;13.40;90.00;;;;;;5053285;28;20021;-34
2022/10/23 05:09:50;;;;;;;6.63;3.50;;;13.40;90.00;;;;;;5052467;28;20021;-34
2022/10/23 05:12:15;;;;;;;6.40;3.50;;;13.40;90.00;;;;;;5053185;28;20094;-34
2022/10/23 05:14:41;;;;;;;6.70;3.55;;;13.50;90.10;;;;;;5053152;28;20180;-34
2022/10/23 05:17:16;;;;;;;6.93;3.33;;;13.40;90.10;;;;;;5053212;28;20064;-34
2022/10/23 05:19:45;;;;;;;7.80;3.28;;;13.50;90.10;;;;;;5053087;28;20025;-35
2022/10/23 05:22:12;;;;;;;5.47;3.25;;;13.50;90.10;;;;;;5053113;28;20032;-35
2022/10/23 05:24:38;;;;;;;6.93;3.42;;;13.50;90.10;;;;;;5053076;28;20028;-35
2022/10/23 05:27:03;;;;;;;5.35;3.05;;;13.50;90.10;;;;;;5053120;28;20049;-34
2022/10/23 05:29:29;;;;;;;8.15;3.72;;;13.50;90.10;;;;;;5051703;28;20025;-35
2022/10/23 05:31:59;;;;;;;5.47;2.88;;;13.50;90.10;;;;;;5052842;28;20031;-34
2022/10/23 05:34:26;;;;;;;5.55;3.25;;;13.50;90.10;;;;;;5051500;28;20017;-33
2022/10/23 05:36:52;;;;;;;5.45;3.22;;;13.50;90.10;;;;;;5052737;28;20037;-34
2022/10/23 05:39:18;;;;;;;5.10;3.08;;;13.50;90.10;;;;;;5052790;28;20032;-35
2022/10/23 05:41:44;;;;;;;8.38;3.80;;;13.50;90.10;;;;;;5052818;28;20025;-34
2022/10/23 05:44:09;;;;;;;4.32;3.17;;;13.50;90.20;;;;;;5052683;28;20039;-32
2022/10/23 05:46:40;;;;;;;8.13;3.22;;;13.60;90.20;;;;;;5052588;28;20040;-35
2022/10/23 05:49:05;;;;;;;6.50;3.40;;;13.60;90.10;;;;;;5052786;28;20424;-34
2022/10/23 05:51:35;;;;;;;8.70;3.50;;;13.60;90.10;;;;;;5052471;28;20021;-35
2022/10/23 05:54:01;;;;;;;8.27;3.40;;;13.70;90.10;;;;;;5052543;28;20021;-34
2022/10/23 05:56:27;;;;;;;4.20;3.17;;;13.70;90.10;;;;;;5052563;28;20090;-35
2022/10/23 05:58:52;;;;;;;6.65;3.30;;;13.70;90.10;;;;;;5052730;28;20389;-34
2022/10/23 06:01:18;;;;;;;5.20;3.33;;;13.70;90.00;;;;;;5052192;28;20061;-35
2022/10/23 06:03:43;;;;;;;4.88;3.25;;;13.80;90.00;;;;;;5052718;28;20021;-34
2022/10/23 06:06:09;;;;;;;5.95;3.67;;;13.80;90.00;;;;;;5052346;28;20272;-41
2022/10/23 06:08:35;;;;;;;7.88;3.65;;;13.90;90.00;;;;;;5052549;28;20334;-35
2022/10/23 06:11:12;;;;;;;6.60;3.42;;;13.90;90.00;;;;;;5052346;28;20039;-35
2022/10/23 06:13:41;;;;;;;8.32;3.70;;;13.90;90.00;;;;;;5052560;28;20024;-35
2022/10/23 06:16:10;;;;;;;5.20;3.20;;;13.90;90.00;;;;;;5052221;28;20032;-35
2022/10/23 06:18:36;;;;;;;5.85;3.53;;;13.90;90.00;;;;;;5052179;28;20039;-34
2022/10/23 06:21:02;;;;;;;6.43;3.45;;;13.90;89.90;;;;;;5051786;28;20029;-35
2022/10/23 06:23:30;;;;;;;6.53;3.92;;;13.90;89.90;;;;;;5050722;28;20024;-35
2022/10/23 06:25:55;;;;;;;6.65;3.60;;;14.00;90.00;;;;;;5051713;28;20025;-35
2022/10/23 06:28:21;;;;;;;6.20;3.42;;;14.00;90.00;;;;;;5050648;28;20139;-34
2022/10/23 06:30:47;;;;;;;5.57;3.63;;;14.00;90.00;;;;;;5052385;28;20094;-35
2022/10/23 06:33:12;;;;;;;9.35;3.80;;;14.00;90.00;;;;;;5051883;28;20076;-34
2022/10/23 06:35:38;;;;;;;5.32;3.45;;;14.00;90.00;;;;;;5052045;28;20372;-35
2022/10/23 06:38:04;;;;;;;8.63;3.80;;;14.00;90.00;;;;;;5051875;28;20052;-35
2022/10/23 06:40:29;;;;;;;5.72;3.67;;;14.00;90.00;;;;;;5051783;28;20422;-34
2022/10/23 06:42:55;;;;;;;6.80;3.70;;;14.00;90.00;;;;;;5051881;28;20437;-35
2022/10/23 06:45:21;;;;;;;6.30;3.50;;;14.00;90.00;;;;;;5051806;28;20325;-35
2022/10/23 06:47:50;;;;;;;7.53;3.65;;;14.00;90.00;;;;;;5051766;28;20032;-35
2022/10/23 06:50:15;;;;;;;5.30;3.25;;;14.00;90.00;;;;;;5051803;28;20017;-40
2022/10/23 06:52:41;;;;;;;5.20;3.28;;;14.00;90.00;;;;;;5051669;28;20472;-34
2022/10/23 06:55:07;;;;;;;7.20;3.88;;;14.10;90.00;;;;;;5051586;28;20161;-34
2022/10/23 06:57:33;;;;;;;8.02;3.92;;;14.00;89.90;;;;;;5051481;28;20074;-33
2022/10/23 06:59:58;;;;;;;7.75;3.42;;;14.10;90.00;;;;;;5051573;28;20119;-42
2022/10/23 07:02:24;;;;;;;8.73;3.80;;;14.10;90.00;;;;;;5051361;28;20572;-34
2022/10/23 07:04:49;;;;;;;4.45;3.38;;;14.20;90.00;;;;;;5051382;28;20468;-33
2022/10/23 07:07:15;;;;;;;6.03;3.47;;;14.20;89.90;;;;;;5050020;28;20055;-35
2022/10/23 07:09:40;;;;;;;7.93;3.47;;;14.20;89.90;;;;;;5051381;28;20104;-34
2022/10/23 07:12:06;;;;;;;4.93;3.30;;;14.20;89.90;;;;;;5050711;28;20013;-35
2022/10/23 07:14:32;;;;;;;6.45;3.58;;;14.20;90.00;;;;;;5050605;28;20021;-34
2022/10/23 07:16:58;;;;;;;5.15;3.42;;;14.20;89.90;;;;;;5051355;28;20027;-37
2022/10/23 07:19:24;;;;;;;6.10;3.70;;;14.20;89.90;;;;;;5051712;28;20029;-35
2022/10/23 07:21:50;;;;;;;3.72;3.03;;;14.20;89.90;;;;;;5051509;28;20333;-35
2022/10/23 07:24:15;;;;;;;6.43;3.85;;;14.30;89.90;;;;;;5051426;28;20095;-34
2022/10/23 07:26:43;;;;;;;7.25;3.85;;;14.30;89.90;;;;;;5051322;28;20024;-35
2022/10/23 07:29:09;;;;;;;5.85;3.53;;;14.30;89.90;;;;;;5051330;28;20098;-37
2022/10/23 07:31:35;;;;;;;7.80;3.45;;;14.30;89.80;;;;;;5050402;28;20162;-37
2022/10/23 07:34:01;;;;;;;6.03;3.50;;;14.30;89.80;;;;;;5051206;28;20088;-36
2022/10/23 07:36:26;;;;;;;8.02;3.38;;;14.40;89.80;;;;;;5051089;28;20029;-35
2022/10/23 07:38:52;;;;;;;6.32;3.30;;;14.40;89.80;;;;;;5049843;28;20499;-33
2022/10/23 07:41:17;;;;;;;7.72;3.50;;;14.40;89.80;;;;;;5051175;28;20036;-36
2022/10/23 07:43:43;;;;;;;6.63;3.60;;;14.50;89.70;;;;;;5051020;28;20017;-34
2022/10/23 07:46:09;;;;;;;7.80;3.83;;;14.50;89.70;;;;;;5051321;28;20439;-33
2022/10/23 07:48:36;;;;;;;5.68;3.50;;;14.50;89.60;;;;;;5050973;28;20021;-35
2022/10/23 07:51:07;;;;;;;7.55;3.40;;;14.60;89.60;;;;;;5050985;28;20048;-34
2022/10/23 07:53:34;;;;;;;4.00;2.90;;;14.60;89.50;;;;;;5051023;28;20025;-34
2022/10/23 07:56:02;;;;;;;5.63;3.30;;;14.60;89.50;;;;;;5050894;28;20044;-36
2022/10/23 07:58:29;;;;;;;5.63;3.28;;;14.70;89.50;;;;;;5050901;28;20036;-36
2022/10/23 08:01:00;;;;;;;7.60;3.30;;;14.70;89.40;;;;;;5050752;28;20059;-34
2022/10/23 08:03:30;;;;;;;6.35;3.03;;;14.70;89.40;;;;;;5050801;28;20384;-34
2022/10/23 08:05:56;;;;;;;6.70;3.40;;;14.80;89.30;;;;;;5050878;28;20032;-35
2022/10/23 08:08:23;;;;;;;6.07;3.47;;;14.80;89.30;;;;;;5050661;28;20404;-35
2022/10/23 08:10:51;;;;;;;6.90;3.33;;;14.80;89.30;;;;;;5050690;28;20021;-35
2022/10/23 08:13:19;;;;;;;6.40;3.10;;;14.80;89.20;;;;;;5050639;28;20175;-34
2022/10/23 08:15:46;;;;;;;7.35;3.78;;;14.80;89.10;;;;;;5050583;28;20473;-34
2022/10/23 08:18:11;;;;;;;7.28;3.40;;;14.90;89.20;;;;;;5050644;28;20052;-40
2022/10/23 08:20:45;;;;;;;6.78;3.50;;;14.90;89.10;;;;;;5050943;28;20440;-35
2022/10/23 08:23:12;;;;;;;5.50;3.45;;;14.90;89.10;;;;;;5050542;28;20021;-34
2022/10/23 08:25:38;;;;;;;7.95;3.08;;;14.90;89.10;;;;;;5050501;28;20021;-36
2022/10/23 08:28:07;;;;;;;5.35;3.40;;;15.00;89.00;;;;;;5050711;28;20053;-35
2022/10/23 08:30:33;;;;;;;5.18;3.17;;;15.00;89.00;;;;;;5050632;28;20021;-35
2022/10/23 08:33:01;;;;;;;5.00;2.97;;;15.00;89.00;;;;;;5050890;28;20496;-35
2022/10/23 08:35:26;;;;;;;7.18;3.20;;;15.10;89.00;;;;;;5050610;28;20017;-34
2022/10/23 08:37:52;;;;;;;4.85;2.90;;;15.10;88.90;;;;;;5050351;28;20391;-34
2022/10/23 08:40:23;;;;;;;4.85;3.33;;;15.20;88.90;;;;;;5050533;28;20021;-35
2022/10/23 08:43:10;;;;;;;7.10;3.72;;;15.20;88.80;;;;;;5051253;28;20053;-35
2022/10/23 08:45:49;;;;;;;6.45;2.95;;;15.30;88.70;;;;;;5054125;28;20024;-34
2022/10/23 08:48:33;;;;;;;6.07;2.80;;;15.20;88.60;;;;;;5052700;28;20065;-33
2022/10/23 08:51:15;;;;;;;6.25;3.17;;;15.30;88.60;;;;;;5053946;28;20017;-34
2022/10/23 08:54:04;;;;;;;6.47;2.78;;;15.40;88.60;;;;;;5053971;28;20024;-36
2022/10/23 08:56:36;;;;;;;5.63;2.85;;;15.40;88.50;;;;;;5053708;28;20037;-35
2022/10/23 08:59:31;;;;;;;5.18;2.50;;;15.40;88.40;;;;;;5053897;28;20029;-35
2022/10/23 09:02:03;;;;;;;4.97;2.72;;;15.50;88.40;;;;;;5054038;28;20049;-35
2022/10/23 09:04:29;;;;;;;6.05;2.83;;;15.60;88.30;;;;;;5053834;28;20381;-36
2022/10/23 09:07:33;;;;;;;5.70;3.28;;;15.60;88.30;;;;;;5053754;28;20497;-35
2022/10/23 09:10:43;;;;;;;4.90;2.70;;;15.60;88.20;;;;;;5052491;28;20029;-35
2022/10/23 09:13:44;;;;;;;6.25;3.00;;;15.70;88.20;;;;;;5051999;28;20116;-35
2022/10/23 09:16:59;;;;;;;7.13;3.13;;;15.70;88.10;;;;;;5053387;28;20028;-35
2022/10/23 09:19:26;;;;;;;6.20;2.95;;;15.80;88.00;;;;;;5043579;28;20052;-35
2022/10/23 09:21:54;;;;;;;6.22;2.78;;;15.80;87.90;;;;;;5053464;28;20123;-35
2022/10/23 09:24:23;;;;;;;7.20;2.55;;;15.90;87.90;;;;;;5053398;28;20025;-26
2022/10/23 09:26:52;;;;;;;6.95;2.65;;;15.90;87.80;;;;;;5053146;28;20047;-25
2022/10/23 09:29:25;;;;;;;6.28;2.80;;;16.00;87.80;;;;;;5052786;28;20100;-33
2022/10/23 09:31:52;;;;;;;6.47;2.70;;;16.00;87.80;;;;;;5052818;28;20029;-25
2022/10/23 09:34:21;;;;;;;4.25;2.72;;;16.00;87.80;;;;;;5052715;28;20342;-25
2022/10/23 09:37:22;;;;;;;6.25;3.05;;;16.00;87.80;;;;;;5052693;28;20025;-35
2022/10/23 09:39:48;;;;;;;4.85;2.38;;;16.00;87.80;;;;;;5051269;28;20366;-26
2022/10/23 09:42:25;;;;;;;3.60;2.55;;;16.00;87.70;;;;;;5052512;28;20021;-27
2022/10/23 09:44:53;;;;;;;6.25;2.70;;;16.10;87.70;;;;;;5052620;28;20090;-28
2022/10/23 09:47:21;;;;;;;4.97;2.45;;;16.10;87.70;;;;;;5052502;28;20021;-28
2022/10/23 09:49:49;;;;;;;4.82;2.53;;;16.10;87.70;;;;;;5052664;28;20021;-37
2022/10/23 09:52:15;;;;;;;4.93;2.50;;;16.10;87.60;;;;;;5052326;28;20523;-29
2022/10/23 09:54:47;;;;;;;6.35;2.60;;;16.10;87.60;;;;;;5051773;28;20384;-25
2022/10/23 09:57:38;;;;;;;5.40;2.50;;;16.10;87.60;;;;;;5052406;28;20441;-25
2022/10/23 10:00:25;;;;;;;4.78;2.70;;;16.10;87.50;;;;;;5052067;28;20483;-26
2022/10/23 10:03:18;;;;;;;4.00;2.50;;;16.10;87.50;;;;;;5052322;28;20452;-27
2022/10/23 10:05:51;;;;;;;4.55;2.15;;;16.20;87.50;;;;;;5052156;28;20110;-29
2022/10/23 10:08:21;;;;;;;5.88;2.40;;;16.20;87.40;;;;;;5051845;28;20455;-26
2022/10/23 10:10:53;;;;;;;5.30;2.38;;;16.20;87.30;;;;;;5052262;28;20032;-29
2022/10/23 10:13:36;;;;;;;5.95;2.38;;;16.30;87.30;;;;;;5050862;28;20094;-26
2022/10/23 10:16:14;;;;;;;6.05;2.70;;;16.30;87.20;;;;;;5052299;28;20574;-27
2022/10/23 10:18:52;;;;;;;5.22;2.60;;;16.40;87.10;;;;;;5051797;28;20021;-25
2022/10/23 10:21:35;;;;;;;6.18;2.53;;;16.40;87.00;;;;;;5051623;28;20031;-31
2022/10/23 10:24:17;;;;;;;5.18;2.38;;;16.50;86.90;;;;;;5051671;28;20063;-26
2022/10/23 10:26:54;;;;;;;3.92;2.50;;;16.60;86.80;;;;;;5051543;28;20028;-25
2022/10/23 10:29:42;;;;;;;4.40;2.28;;;16.70;86.70;;;;;;5052155;28;20041;-25
2022/10/23 10:32:31;;;;;;;4.35;2.50;;;16.70;86.50;;;;;;5051378;28;20029;-27
2022/10/23 10:35:22;;;;;;;3.67;2.30;;;16.80;86.40;;;;;;5051608;28;20017;-37
2022/10/23 10:38:05;;;;;;;4.65;2.55;;;16.90;86.30;;;;;;5051606;28;20029;-31
2022/10/23 10:40:40;;;;;;;;;;;16.90;86.10;;;;;;5052076;28;20159;-32
2022/10/23 10:43:21;;;;;;;4.57;2.03;;;17.00;86.10;;;;;;5051877;28;19904;-27
2022/10/23 10:45:48;;;;;;;3.83;2.10;;;17.00;86.10;;;;;;5051507;28;20101;-30
2022/10/23 10:48:50;;;;;;;4.32;2.13;;;17.00;86.00;;;;;;5051496;28;20070;-27
2022/10/23 10:51:26;;;;;;;4.10;2.33;;;17.10;85.90;;;;;;5051404;28;20021;-31
2022/10/23 10:54:05;;;;;;;2.50;2.08;;;17.10;85.80;;;;;;5051367;28;20029;-27
2022/10/23 10:56:35;;;;;;;3.08;2.05;;;17.10;85.80;;;;;;5051459;28;20062;-52
2022/10/23 10:59:18;;;;;;;5.32;2.22;;;17.10;85.70;;;;;;5051716;28;20116;-29
2022/10/23 11:01:54;;;;;;;4.10;2.10;;;17.20;85.70;;;;;;5051553;28;20077;-27
2022/10/23 11:04:32;;;;;;;5.80;2.22;;;17.20;85.60;;;;;;5051350;28;20064;-33
2022/10/23 11:07:04;;;;;;;4.47;2.33;;;17.20;85.50;;;;;;5050222;28;20028;-39
2022/10/23 11:09:30;;;;;;;4.15;2.28;;;17.20;85.40;;;;;;5051267;28;20029;-41
2022/10/23 11:11:56;;;;;;;4.63;2.30;;;17.30;85.40;;;;;;5051470;28;20473;-31
2022/10/23 11:14:24;;;;;;;4.65;2.15;;;17.30;85.20;;;;;;5051203;28;20021;-26
2022/10/23 11:17:11;;;;;;;4.28;2.13;;;17.40;85.10;;;;;;5051112;28;20025;-30
2022/10/23 11:20:00;;;;;;;2.90;1.80;;;17.40;85.00;;;;;;5050973;28;20459;-38
2022/10/23 11:22:28;;;;;;;3.33;2.00;;;17.50;84.90;;;;;;5051126;28;20108;-34
2022/10/23 11:25:13;;;;;;;5.88;1.92;;;17.50;84.80;;;;;;5051524;28;20036;-31
2022/10/23 11:27:52;;;;;;;5.43;2.20;;;17.50;84.60;;;;;;5051151;28;20115;-30
2022/10/23 11:30:30;;;;;;;4.30;2.20;;;17.60;84.50;;;;;;5051271;28;20106;-29
2022/10/23 11:33:22;;;;;;;4.03;1.80;;;17.60;84.40;;;;;;5051019;28;20098;-28
2022/10/23 11:35:51;;;;;;;3.67;2.03;;;17.70;84.30;;;;;;5050354;28;20037;-29
2022/10/23 11:38:18;;;;;;;4.00;2.10;;;17.70;84.20;;;;;;5050223;28;20033;-27
2022/10/23 11:40:56;;;;;;;3.22;2.00;;;17.70;84.00;;;;;;5050888;28;20037;-26
2022/10/23 11:43:55;;;;;;;3.70;2.10;;;17.80;83.90;;;;;;5050812;28;20029;-28
2022/10/23 11:46:27;;;;;;;3.75;1.80;;;17.90;83.70;;;;;;5050337;28;20064;-27
2022/10/23 11:48:54;;;;;;;2.92;1.90;;;17.90;83.60;;;;;;5050480;28;20033;-35
2022/10/23 11:51:32;;;;;;;3.95;1.90;;;18.00;83.50;;;;;;5050444;28;20025;-29
2022/10/23 11:54:23;;;;;;;2.78;1.88;;;18.10;83.30;;;;;;5051119;28;20339;-27
2022/10/23 11:57:06;;;;;;;3.20;1.85;;;18.10;83.10;;;;;;5051174;28;20029;-31
2022/10/23 11:59:32;;;;;;;;;;;18.10;83.00;;;;;;5051304;28;20028;-30
2022/10/23 12:02:01;;;;;;;4.65;1.92;;;18.20;83.10;;;;;;5050974;28;19965;-30
2022/10/23 12:04:39;;;;;;;1.83;1.67;;;18.20;82.90;;;;;;5050696;28;20058;-30
2022/10/23 12:07:24;;;;;;;4.75;2.10;;;18.30;82.80;;;;;;5050893;28;20167;-29
2022/10/23 12:10:02;;;;;;;9.85;2.95;;;18.30;82.60;;;;;;5051089;28;20029;-31
2022/10/23 12:12:34;;;;;;;2.45;1.67;;;18.30;82.50;;;;;;5050812;28;20033;-34
2022/10/23 12:15:14;;;;;;;3.78;1.70;;;18.40;82.40;;;;;;5049302;28;20442;-31
2022/10/23 12:17:41;;;;;;;3.70;1.90;;;18.50;82.20;;;;;;5051651;28;20527;-31
2022/10/23 12:20:07;;;;;;;2.60;2.10;;;18.50;82.10;;;;;;5055234;28;20037;-30
2022/10/23 12:23:00;;;;;;;2.70;1.95;;;18.60;81.80;;;;;;5055068;28;20056;-32
2022/10/23 12:25:56;;;;;;;4.03;1.70;;;18.60;81.60;;;;;;5054944;28;20035;-32
2022/10/23 12:28:21;;;;;;;4.95;2.13;;;18.70;81.50;;;;;;5054908;28;20041;-33
2022/10/23 12:31:09;;;;;;;3.63;1.88;;;18.80;81.40;;;;;;5053314;28;20048;-30
2022/10/23 12:33:48;;;;;;;3.13;1.73;;;18.90;81.30;;;;;;5054698;28;20400;-30
2022/10/23 12:36:29;;;;;;;5.72;2.30;;;18.90;81.20;;;;;;5054527;28;20509;-30
2022/10/23 12:38:57;;;;;;;3.50;1.83;;;18.90;81.00;;;;;;5054426;28;20086;-32
2022/10/23 12:41:28;;;;;;;4.18;1.95;;;19.00;80.60;;;;;;5054753;28;20024;-31
2022/10/23 12:43:57;;;;;;;4.63;1.80;;;19.00;80.50;;;;;;5054346;28;20033;-30
2022/10/23 12:46:33;;;;;;;4.30;1.83;;;19.00;80.30;;;;;;5054244;28;20033;-28
2022/10/23 12:49:01;;;;;;;2.58;1.83;;;19.00;80.10;;;;;;5054448;28;20035;-32
2022/10/23 12:51:32;;;;;;;2.95;2.00;;;18.90;80.00;;;;;;5054321;28;20025;-33
2022/10/23 12:53:59;;;;;;;4.05;1.83;;;18.90;80.10;;;;;;5053991;28;20082;-29
2022/10/23 12:56:26;;;;;;;4.10;2.10;;;19.00;80.20;;;;;;5054026;28;20029;-33
2022/10/23 12:59:00;;;;;;;3.38;1.80;;;18.90;80.10;;;;;;5053972;28;20025;-28
2022/10/23 13:01:29;;;;;;;3.13;1.80;;;19.00;80.20;;;;;;5054162;28;20057;-31
2022/10/23 13:04:03;;;;;;;2.63;1.75;;;19.00;80.20;;;;;;5054425;28;20036;-29
2022/10/23 13:06:30;;;;;;;3.42;1.88;;;19.10;80.10;;;;;;5054202;28;20039;-35
2022/10/23 13:08:56;;;;;;;2.20;1.63;;;19.10;80.00;;;;;;5054009;28;20029;-30